createdAt,value
2022-10-08T00:01:17.130Z,3.40
2022-10-08T00:03:46.858Z,2.60
2022-10-08T00:06:30.341Z,2.47
2022-10-08T00:09:02.533Z,2.95
2022-10-08T00:11:33.067Z,2.78
2022-10-08T00:14:02.239Z,3.00
2022-10-08T00:16:42.139Z,3.47
2022-10-08T00:19:13.092Z,2.67
2022-10-08T00:21:42.360Z,4.05
2022-10-08T00:24:15.645Z,3.10
2022-10-08T00:26:44.375Z,3.88
2022-10-08T00:29:14.156Z,3.10
2022-10-08T00:31:45.659Z,4.50
2022-10-08T00:34:16.121Z,3.05
2022-10-08T00:36:43.340Z,3.53
2022-10-08T00:39:13.954Z,2.83
2022-10-08T00:41:41.817Z,3.07
2022-10-08T00:44:46.414Z,4.53
2022-10-08T00:47:19.471Z,3.80
2022-10-08T00:49:49.560Z,2.80
2022-10-08T00:52:18.539Z,3.53
2022-10-08T00:54:46.303Z,3.58
2022-10-08T00:57:13.156Z,3.33
2022-10-08T00:59:40.097Z,4.07
2022-10-08T01:02:10.321Z,4.00
2022-10-08T01:04:38.794Z,3.28
2022-10-08T01:07:11.633Z,2.55
2022-10-08T01:09:45.941Z,2.50
2022-10-08T01:12:31.680Z,2.75
2022-10-08T01:15:27.662Z,3.92
2022-10-08T01:18:10.267Z,3.33
2022-10-08T01:21:02.514Z,2.60
2022-10-08T01:23:58.329Z,3.17
2022-10-08T01:26:28.200Z,2.85
2022-10-08T01:29:17.875Z,3.00
2022-10-08T01:31:50.170Z,2.72
2022-10-08T01:34:37.837Z,2.65
2022-10-08T01:37:09.284Z,2.80
2022-10-08T01:42:09.764Z,2.28
2022-10-08T01:44:43.265Z,2.85
2022-10-08T01:47:16.203Z,2.65
2022-10-08T01:49:49.957Z,4.28
2022-10-08T01:52:23.459Z,2.72
2022-10-08T01:54:55.164Z,3.13
2022-10-08T01:57:24.510Z,3.03
2022-10-08T01:59:57.449Z,3.25
2022-10-08T02:02:26.126Z,2.47
2022-10-08T02:04:55.243Z,1.73
2022-10-08T02:07:29.192Z,4.20
2022-10-08T02:10:23.737Z,2.13
2022-10-08T02:12:50.936Z,3.40
2022-10-08T02:15:31.802Z,3.47
2022-10-08T02:18:16.921Z,2.90
2022-10-08T02:20:56.063Z,1.30
2022-10-08T02:23:30.011Z,1.95
2022-10-08T02:26:02.959Z,2.92
2022-10-08T02:29:25.148Z,2.60
2022-10-08T02:32:40.525Z,3.35
2022-10-08T02:35:15.301Z,1.77
2022-10-08T02:37:48.129Z,2.35
2022-10-08T02:40:17.534Z,1.50
2022-10-08T02:42:50.055Z,1.88
2022-10-08T02:45:27.151Z,1.38
2022-10-08T02:48:11.963Z,2.42
2022-10-08T02:50:43.303Z,2.20
2022-10-08T02:53:14.693Z,2.70
2022-10-08T02:58:23.501Z,2.63
2022-10-08T03:00:57.438Z,3.72
2022-10-08T03:03:36.432Z,3.72
2022-10-08T03:06:10.028Z,5.65
2022-10-08T03:08:41.793Z,4.43
2022-10-08T03:11:09.962Z,5.18
2022-10-08T03:13:40.695Z,4.30
2022-10-08T03:16:12.085Z,4.22
2022-10-08T03:21:09.779Z,4.50
2022-10-08T03:23:36.767Z,4.38
2022-10-08T03:26:03.611Z,3.50
2022-10-08T03:28:30.638Z,3.40
2022-10-08T03:30:57.666Z,3.78
2022-10-08T03:33:24.650Z,2.78
2022-10-08T03:35:51.502Z,3.55
2022-10-08T03:38:18.436Z,3.22
2022-10-08T03:40:55.452Z,3.75
2022-10-08T03:43:22.788Z,3.20
2022-10-08T03:45:53.951Z,3.03
2022-10-08T03:48:22.397Z,3.10
2022-10-08T03:50:54.668Z,3.33
2022-10-08T03:53:22.293Z,3.35
2022-10-08T03:55:49.786Z,2.63
2022-10-08T03:58:17.248Z,2.72
2022-10-08T04:00:44.192Z,3.90
2022-10-08T04:03:11.452Z,2.55
2022-10-08T04:05:38.338Z,1.92
2022-10-08T04:08:05.183Z,3.63
2022-10-08T04:10:32.123Z,2.30
2022-10-08T04:12:58.966Z,1.52
2022-10-08T04:15:25.853Z,1.23
2022-10-08T04:17:52.807Z,1.30
2022-10-08T04:20:19.649Z,1.52
2022-10-08T04:22:46.599Z,1.20
2022-10-08T04:25:13.751Z,1.73
2022-10-08T04:27:40.902Z,2.00
2022-10-08T04:30:08.407Z,2.72
2022-10-08T04:32:35.499Z,3.45
2022-10-08T04:35:02.450Z,1.83
2022-10-08T04:37:29.401Z,1.40
2022-10-08T04:39:56.264Z,2.15
2022-10-08T04:42:23.230Z,0.90
2022-10-08T04:44:50.181Z,3.38
2022-10-08T04:47:17.164Z,1.63
2022-10-08T04:49:44.830Z,1.60
2022-10-08T04:52:12.339Z,1.33
2022-10-08T04:54:39.177Z,1.80
2022-10-08T04:57:06.080Z,2.17
2022-10-08T04:59:33.024Z,3.17
2022-10-08T05:02:00.716Z,3.03
2022-10-08T05:04:27.524Z,2.10
2022-10-08T05:06:54.444Z,2.90
2022-10-08T05:09:21.562Z,2.42
2022-10-08T05:11:51.172Z,1.67
2022-10-08T05:14:18.014Z,2.05
2022-10-08T05:16:44.958Z,3.42
2022-10-08T05:19:11.853Z,1.23
2022-10-08T05:21:38.708Z,0.95
2022-10-08T05:24:08.306Z,1.23
2022-10-08T05:26:58.395Z,2.22
2022-10-08T05:29:25.544Z,0.88
2022-10-08T05:31:52.437Z,0.77
2022-10-08T05:34:19.352Z,0.63
2022-10-08T05:36:46.438Z,1.65
2022-10-08T05:39:13.586Z,2.25
2022-10-08T05:41:40.989Z,2.47
2022-10-08T05:44:08.696Z,2.35
2022-10-08T05:46:36.771Z,2.17
2022-10-08T05:49:06.427Z,1.60
2022-10-08T05:51:33.686Z,1.90
2022-10-08T05:54:01.140Z,3.30
2022-10-08T05:56:29.226Z,4.15
2022-10-08T05:58:56.242Z,2.03
2022-10-08T06:01:26.383Z,2.03
2022-10-08T06:04:08.938Z,4.18
2022-10-08T06:06:41.258Z,0.90
2022-10-08T06:09:10.809Z,0.90
2022-10-08T06:11:38.123Z,1.40
2022-10-08T06:14:07.247Z,1.38
2022-10-08T06:16:35.083Z,1.23
2022-10-08T06:19:03.380Z,0.90
2022-10-08T06:21:30.871Z,1.15
2022-10-08T06:24:00.475Z,1.02
2022-10-08T06:26:35.157Z,2.00
2022-10-08T06:29:03.574Z,1.33
2022-10-08T06:31:30.472Z,2.25
2022-10-08T06:33:58.487Z,1.98
2022-10-08T06:36:28.003Z,2.38
2022-10-08T06:38:57.320Z,2.05
2022-10-08T06:41:25.417Z,2.05
2022-10-08T06:43:52.372Z,2.20
2022-10-08T06:46:19.786Z,2.58
2022-10-08T06:48:47.029Z,2.47
2022-10-08T06:51:16.516Z,1.55
2022-10-08T06:53:44.655Z,1.50
2022-10-08T06:56:14.975Z,1.58
2022-10-08T06:58:45.088Z,2.40
2022-10-08T07:01:17.987Z,1.92
2022-10-08T07:03:49.681Z,1.90
2022-10-08T07:06:16.548Z,1.80
2022-10-08T07:08:43.755Z,4.72
2022-10-08T07:11:17.329Z,0.47
2022-10-08T07:13:44.791Z,1.25
2022-10-08T07:16:20.824Z,1.30
2022-10-08T07:18:49.621Z,4.00
2022-10-08T07:21:18.228Z,4.88
2022-10-08T07:23:45.442Z,5.65
2022-10-08T07:26:24.401Z,4.13
2022-10-08T07:28:51.230Z,5.18
2022-10-08T07:31:24.155Z,3.03
2022-10-08T07:33:51.529Z,3.05
2022-10-08T07:36:20.678Z,3.65
2022-10-08T07:38:50.695Z,3.58
2022-10-08T07:41:17.629Z,3.92
2022-10-08T07:43:44.479Z,3.22
2022-10-08T07:46:12.385Z,5.43
2022-10-08T07:48:39.861Z,4.18
2022-10-08T07:51:11.927Z,5.18
2022-10-08T07:53:40.197Z,3.92
2022-10-08T07:56:08.365Z,3.47
2022-10-08T07:58:35.928Z,3.15
2022-10-08T08:01:05.073Z,2.30
2022-10-08T08:03:32.782Z,2.80
2022-10-08T08:06:09.464Z,2.33
2022-10-08T08:08:38.244Z,2.70
2022-10-08T08:11:06.606Z,2.33
2022-10-08T08:13:37.415Z,3.00
2022-10-08T08:16:11.295Z,2.05
2022-10-08T08:18:43.438Z,2.58
2022-10-08T08:21:24.511Z,1.70
2022-10-08T08:23:54.335Z,1.77
2022-10-08T08:26:26.648Z,2.13
2022-10-08T08:28:59.020Z,1.50
2022-10-08T08:31:28.613Z,1.35
2022-10-08T08:33:58.233Z,1.40
2022-10-08T08:36:34.084Z,1.30
2022-10-08T08:39:01.915Z,1.42
2022-10-08T08:42:06.389Z,1.70
2022-10-08T08:45:41.540Z,1.23
2022-10-08T08:48:12.049Z,1.25
2022-10-08T08:50:46.684Z,0.88
2022-10-08T08:53:15.370Z,1.00
2022-10-08T08:55:45.477Z,1.45
2022-10-08T08:58:12.578Z,1.35
2022-10-08T09:00:50.199Z,1.30
2022-10-08T09:03:23.219Z,1.67
2022-10-08T09:05:58.352Z,1.67
2022-10-08T09:08:39.321Z,1.80
2022-10-08T09:11:06.478Z,1.70
2022-10-08T09:13:41.514Z,1.85
2022-10-08T09:16:12.817Z,1.17
2022-10-08T09:21:07.562Z,1.45
2022-10-08T09:23:34.658Z,1.23
2022-10-08T09:26:17.531Z,1.30
2022-10-08T09:28:50.106Z,1.45
2022-10-08T09:31:29.758Z,1.40
2022-10-08T09:33:59.765Z,1.15
2022-10-08T09:36:42.327Z,0.95
2022-10-08T09:39:22.591Z,1.23
2022-10-08T09:42:18.661Z,0.95
2022-10-08T09:44:52.583Z,1.45
2022-10-08T09:47:24.274Z,2.10
2022-10-08T09:50:20.007Z,1.58
2022-10-08T09:52:54.473Z,1.00
2022-10-08T09:55:32.165Z,0.95
2022-10-08T09:58:06.077Z,1.63
2022-10-08T10:00:39.700Z,1.13
2022-10-08T10:03:15.689Z,1.10
2022-10-08T10:05:42.990Z,1.08
2022-10-08T10:08:46.081Z,1.00
2022-10-08T10:11:20.197Z,1.15
2022-10-08T10:13:49.950Z,1.30
2022-10-08T10:16:29.817Z,0.82
2022-10-08T10:19:04.904Z,0.85
2022-10-08T10:21:46.729Z,0.93
2022-10-08T10:24:32.327Z,0.90
2022-10-08T10:27:11.856Z,0.65
2022-10-08T10:29:47.655Z,1.23
2022-10-08T10:32:33.287Z,0.70
2022-10-08T10:35:11.149Z,1.13
2022-10-08T10:38:09.781Z,1.15
2022-10-08T10:40:47.269Z,1.30
2022-10-08T10:43:50.973Z,0.65
2022-10-08T10:46:46.696Z,1.38
2022-10-08T10:49:23.581Z,1.10
2022-10-08T10:52:05.531Z,1.23
2022-10-08T10:54:32.312Z,1.90
2022-10-08T10:57:05.764Z,1.13
2022-10-08T10:59:48.319Z,1.60
2022-10-08T11:02:31.775Z,1.38
2022-10-08T11:05:09.855Z,1.30
2022-10-08T11:07:42.548Z,1.33
2022-10-08T11:10:28.497Z,1.65
2022-10-08T11:13:05.407Z,1.08
2022-10-08T11:16:05.987Z,1.55
2022-10-08T11:18:54.553Z,1.37
2022-10-08T11:21:39.812Z,1.23
2022-10-08T11:24:17.467Z,1.02
2022-10-08T11:27:07.326Z,1.13
2022-10-08T11:29:51.341Z,1.73
2022-10-08T11:32:19.579Z,1.42
2022-10-08T11:35:14.162Z,1.10
2022-10-08T11:37:52.024Z,0.95
2022-10-08T11:40:44.920Z,0.90
2022-10-08T11:43:49.033Z,0.82
2022-10-08T11:46:29.077Z,1.15
2022-10-08T11:49:01.161Z,0.90
2022-10-08T11:51:32.606Z,0.80
2022-10-08T11:53:59.338Z,1.10
2022-10-08T11:56:26.139Z,1.23
2022-10-08T11:58:57.581Z,0.80
2022-10-08T12:01:24.987Z,1.25
2022-10-08T12:04:07.598Z,0.80
2022-10-08T12:06:35.876Z,1.02
2022-10-08T12:09:05.951Z,0.90
2022-10-08T12:11:32.701Z,0.80
2022-10-08T12:14:19.968Z,1.10
2022-10-08T12:16:55.958Z,0.80
2022-10-08T12:19:35.302Z,1.00
2022-10-08T12:22:14.788Z,0.70
2022-10-08T12:24:44.801Z,0.70
2022-10-08T12:27:17.612Z,0.93
2022-10-08T12:30:05.730Z,0.70
2022-10-08T12:32:44.767Z,0.80
2022-10-08T12:35:47.649Z,0.77
2022-10-08T12:38:36.464Z,0.70
2022-10-08T12:41:10.821Z,0.50
2022-10-08T12:43:53.188Z,0.80
2022-10-08T12:46:26.873Z,0.95
2022-10-08T12:49:35.453Z,0.60
2022-10-08T12:52:17.151Z,0.70
2022-10-08T12:55:04.187Z,0.63
2022-10-08T12:57:37.868Z,1.05
2022-10-08T13:00:11.445Z,0.60
2022-10-08T13:02:43.227Z,0.85
2022-10-08T13:05:31.015Z,0.52
2022-10-08T13:07:58.671Z,0.68
2022-10-08T13:10:28.535Z,0.85
2022-10-08T13:13:19.019Z,0.88
2022-10-08T13:15:45.861Z,0.73
2022-10-08T13:18:22.188Z,0.60
2022-10-08T13:21:03.920Z,1.00
2022-10-08T13:23:44.100Z,0.73
2022-10-08T13:26:38.679Z,1.10
2022-10-08T13:29:24.302Z,0.90
2022-10-08T13:32:04.873Z,0.75
2022-10-08T13:34:35.612Z,0.80
2022-10-08T13:37:04.963Z,0.80
2022-10-08T13:39:40.199Z,1.20
2022-10-08T13:42:28.754Z,0.88
2022-10-08T13:44:58.626Z,1.08
2022-10-08T13:47:27.661Z,1.17
2022-10-08T13:50:00.442Z,1.33
2022-10-08T13:52:29.948Z,1.25
2022-10-08T13:55:03.559Z,0.90
2022-10-08T13:57:30.701Z,0.90
2022-10-08T13:59:57.710Z,1.20
2022-10-08T14:02:44.663Z,0.95
2022-10-08T14:05:11.613Z,0.70
2022-10-08T14:07:39.172Z,0.60
2022-10-08T14:10:06.571Z,0.70
2022-10-08T14:12:35.472Z,1.02
2022-10-08T14:15:02.308Z,0.77
2022-10-08T14:17:29.208Z,0.82
2022-10-08T14:19:56.252Z,1.10
2022-10-08T14:22:23.495Z,0.90
2022-10-08T14:24:50.408Z,1.00
2022-10-08T14:27:17.551Z,0.63
2022-10-08T14:29:44.386Z,1.00
2022-10-08T14:32:12.048Z,0.75
2022-10-08T14:34:39.508Z,0.88
2022-10-08T14:37:06.979Z,0.85
2022-10-08T14:39:33.905Z,1.10
2022-10-08T14:42:00.909Z,0.90
2022-10-08T14:44:27.806Z,0.70
2022-10-08T14:46:54.698Z,0.60
2022-10-08T14:49:22.491Z,0.60
2022-10-08T14:51:49.299Z,0.82
2022-10-08T14:54:18.040Z,0.65
2022-10-08T14:56:45.128Z,0.80
2022-10-08T14:59:15.095Z,1.98
2022-10-08T15:01:42.089Z,0.90
2022-10-08T15:04:13.859Z,0.80
2022-10-08T15:06:41.304Z,0.75
2022-10-08T15:09:10.503Z,0.57
2022-10-08T15:11:37.409Z,1.00
2022-10-08T15:14:04.650Z,0.85
2022-10-08T15:16:31.683Z,1.08
2022-10-08T15:18:58.950Z,1.33
2022-10-08T15:21:25.946Z,0.85
2022-10-08T15:23:56.941Z,1.15
2022-10-08T15:26:23.936Z,1.13
2022-10-08T15:28:53.302Z,0.60
2022-10-08T15:31:22.375Z,1.45
2022-10-08T15:33:51.637Z,1.02
2022-10-08T15:36:25.497Z,1.73
2022-10-08T15:39:15.124Z,0.73
2022-10-08T15:41:44.268Z,0.90
2022-10-08T15:44:21.852Z,1.00
2022-10-08T15:46:50.802Z,1.00
2022-10-08T15:49:17.695Z,0.95
2022-10-08T15:51:44.750Z,0.70
2022-10-08T15:54:11.693Z,0.88
2022-10-08T15:56:38.525Z,1.10
2022-10-08T15:59:05.940Z,0.90
2022-10-08T16:01:32.930Z,0.80
2022-10-08T16:04:00.377Z,0.98
2022-10-08T16:06:37.735Z,0.80
2022-10-08T16:09:05.187Z,0.88
2022-10-08T16:11:33.779Z,0.95
2022-10-08T16:14:19.091Z,0.90
2022-10-08T16:16:46.461Z,2.40
2022-10-08T16:19:16.574Z,1.75
2022-10-08T16:21:45.354Z,2.00
2022-10-08T16:24:13.219Z,1.13
2022-10-08T16:26:40.987Z,2.20
2022-10-08T16:29:11.361Z,1.73
2022-10-08T16:31:39.491Z,1.23
2022-10-08T16:34:12.570Z,1.20
2022-10-08T16:36:39.819Z,1.33
2022-10-08T16:39:07.738Z,1.20
2022-10-08T16:41:36.785Z,1.45
2022-10-08T16:44:12.069Z,0.90
2022-10-08T16:46:43.230Z,0.85
2022-10-08T16:49:21.278Z,0.80
2022-10-08T16:51:51.760Z,0.90
2022-10-08T16:54:19.268Z,1.52
2022-10-08T16:56:46.720Z,1.33
2022-10-08T16:59:19.615Z,0.80
2022-10-08T17:01:50.232Z,0.77
2022-10-08T17:04:18.387Z,1.13
2022-10-08T17:06:46.170Z,0.98
2022-10-08T17:09:13.579Z,0.80
2022-10-08T17:11:42.119Z,0.70
2022-10-08T17:14:10.468Z,1.05
2022-10-08T17:16:38.389Z,0.80
2022-10-08T17:19:05.727Z,1.20
2022-10-08T17:21:35.080Z,0.73
2022-10-08T17:24:03.161Z,0.95
2022-10-08T17:26:31.110Z,0.57
2022-10-08T17:29:01.795Z,1.30
2022-10-08T17:31:29.504Z,0.82
2022-10-08T17:33:56.695Z,0.70
2022-10-08T17:36:26.676Z,1.17
2022-10-08T17:38:56.221Z,0.77
2022-10-08T17:41:27.374Z,0.98
2022-10-08T17:43:58.509Z,0.80
2022-10-08T17:46:37.734Z,0.82
2022-10-08T17:49:06.325Z,1.00
2022-10-08T17:51:33.681Z,0.90
2022-10-08T17:54:03.388Z,1.17
2022-10-08T17:56:31.035Z,0.70
2022-10-08T17:58:58.610Z,0.88
2022-10-08T18:01:31.356Z,0.70
2022-10-08T18:04:12.414Z,0.80
2022-10-08T18:06:42.994Z,0.80
2022-10-08T18:09:19.156Z,0.90
2022-10-08T18:11:48.931Z,0.70
2022-10-08T18:14:17.333Z,0.73
2022-10-08T18:16:48.226Z,1.20
2022-10-08T18:19:15.592Z,1.30
2022-10-08T18:21:42.485Z,1.00
2022-10-08T18:24:09.582Z,0.80
2022-10-08T18:26:37.247Z,0.90
2022-10-08T18:29:09.520Z,0.90
2022-10-08T18:31:37.603Z,0.95
2022-10-08T18:34:08.227Z,0.65
2022-10-08T18:36:37.469Z,0.80
2022-10-08T18:39:10.916Z,1.00
2022-10-08T18:41:43.286Z,0.70
2022-10-08T18:44:14.276Z,0.82
2022-10-08T18:46:44.836Z,1.15
2022-10-08T18:49:19.804Z,0.75
2022-10-08T18:51:49.041Z,0.80
2022-10-08T18:54:15.985Z,0.80
2022-10-08T18:56:43.037Z,0.82
2022-10-08T18:59:15.352Z,1.00
2022-10-08T19:01:45.529Z,1.08
2022-10-08T19:04:18.515Z,0.80
2022-10-08T19:06:46.987Z,0.70
2022-10-08T19:09:14.188Z,0.77
2022-10-08T19:11:45.299Z,0.90
2022-10-08T19:14:15.465Z,1.15
2022-10-08T19:16:43.524Z,1.00
2022-10-08T19:19:18.154Z,0.90
2022-10-08T19:21:45.861Z,0.95
2022-10-08T19:24:20.957Z,0.95
2022-10-08T19:26:48.862Z,0.88
2022-10-08T19:29:25.591Z,0.75
2022-10-08T19:31:52.586Z,0.90
2022-10-08T19:34:22.454Z,0.65
2022-10-08T19:36:50.473Z,1.35
2022-10-08T19:39:20.497Z,1.00
2022-10-08T19:41:47.951Z,1.30
2022-10-08T19:44:14.995Z,1.00
2022-10-08T19:46:42.165Z,1.10
2022-10-08T19:49:10.112Z,0.95
2022-10-08T19:51:37.631Z,1.10
2022-10-08T19:54:05.279Z,1.05
2022-10-08T19:56:32.895Z,0.90
2022-10-08T19:58:59.992Z,1.02
2022-10-08T20:01:33.720Z,0.70
2022-10-08T20:04:02.687Z,0.70
2022-10-08T20:06:31.436Z,1.10
2022-10-08T20:09:01.647Z,1.35
2022-10-08T20:11:30.703Z,1.33
2022-10-08T20:13:58.926Z,0.75
2022-10-08T20:16:32.542Z,1.88
2022-10-08T20:19:02.638Z,1.00
2022-10-08T20:21:31.383Z,1.33
2022-10-08T20:23:58.653Z,1.40
2022-10-08T20:26:31.259Z,0.88
2022-10-08T20:29:06.804Z,0.80
2022-10-08T20:31:36.601Z,1.05
2022-10-08T20:34:27.081Z,1.10
2022-10-08T20:36:54.115Z,1.20
2022-10-08T20:39:22.582Z,1.13
2022-10-08T20:41:50.042Z,1.00
2022-10-08T20:44:17.921Z,1.00
2022-10-08T20:46:45.080Z,1.10
2022-10-08T20:49:13.514Z,1.10
2022-10-08T20:51:42.188Z,1.33
2022-10-08T20:54:12.248Z,0.63
2022-10-08T20:56:40.711Z,1.25
2022-10-08T20:59:14.891Z,1.08
2022-10-08T21:01:42.197Z,0.70
2022-10-08T21:04:09.597Z,0.80
2022-10-08T21:06:40.228Z,0.90
2022-10-08T21:09:08.414Z,0.90
2022-10-08T21:11:36.378Z,1.17
2022-10-08T21:14:04.656Z,1.15
2022-10-08T21:16:34.693Z,1.10
2022-10-08T21:19:04.071Z,1.38
2022-10-08T21:21:33.065Z,1.17
2022-10-08T21:24:00.982Z,1.10
2022-10-08T21:26:33.451Z,0.80
2022-10-08T21:29:03.110Z,1.00
2022-10-08T21:31:31.943Z,1.25
2022-10-08T21:33:59.565Z,0.70
2022-10-08T21:36:33.110Z,0.80
2022-10-08T21:39:01.338Z,0.60
2022-10-08T21:41:30.328Z,0.90
2022-10-08T21:44:00.097Z,0.80
2022-10-08T21:46:29.759Z,1.60
2022-10-08T21:49:01.930Z,0.80
2022-10-08T21:51:30.453Z,0.90
2022-10-08T21:53:59.697Z,0.95
2022-10-08T21:56:29.263Z,0.68
2022-10-08T21:59:01.091Z,1.30
2022-10-08T22:01:36.372Z,1.33
2022-10-08T22:04:07.449Z,0.75
2022-10-08T22:06:37.623Z,0.98
2022-10-08T22:09:10.803Z,1.42
2022-10-08T22:11:38.008Z,0.90
2022-10-08T22:14:05.515Z,1.25
2022-10-08T22:16:32.583Z,1.15
2022-10-08T22:18:59.845Z,1.33
2022-10-08T22:21:26.722Z,1.30
2022-10-08T22:23:54.268Z,1.55
2022-10-08T22:26:24.250Z,1.30
2022-10-08T22:28:51.337Z,1.20
2022-10-08T22:31:19.955Z,1.50
2022-10-08T22:33:47.939Z,0.98
2022-10-08T22:36:26.821Z,2.08
2022-10-08T22:38:54.636Z,1.30
2022-10-08T22:41:30.136Z,1.30
2022-10-08T22:43:57.820Z,1.20
2022-10-08T22:46:30.564Z,1.40
2022-10-08T22:49:03.503Z,1.40
2022-10-08T22:51:30.991Z,1.00
2022-10-08T22:53:58.470Z,1.02
2022-10-08T22:56:29.060Z,0.90
2022-10-08T22:58:56.405Z,0.87
2022-10-08T23:01:24.935Z,0.70
2022-10-08T23:03:52.390Z,1.20
2022-10-08T23:06:27.686Z,0.85
2022-10-08T23:09:06.355Z,0.90
2022-10-08T23:11:34.032Z,0.70
2022-10-08T23:14:01.942Z,1.40
2022-10-08T23:16:31.294Z,1.00
2022-10-08T23:19:00.790Z,1.25
2022-10-08T23:21:28.756Z,1.23
2022-10-08T23:23:56.522Z,1.20
2022-10-08T23:26:24.601Z,1.20
2022-10-08T23:28:56.307Z,1.15
2022-10-08T23:31:26.174Z,1.00
2022-10-08T23:33:54.489Z,0.80
2022-10-08T23:36:24.880Z,1.00
2022-10-08T23:38:52.807Z,0.80
2022-10-08T23:41:20.101Z,1.20
2022-10-08T23:43:49.249Z,1.10
2022-10-08T23:46:18.468Z,0.80
2022-10-08T23:48:45.738Z,0.80
2022-10-08T23:51:14.108Z,0.80
2022-10-08T23:53:41.723Z,0.90
2022-10-08T23:56:09.702Z,0.90
2022-10-08T23:58:37.055Z,0.60
